sensor_id;sensor_type;location;lat;lon;timestamp;temperature;humidity
46091;DHT22;31826;53.572;10.170;2023-06-04T00:00:42;13.80;84.50
46091;DHT22;31826;53.572;10.170;2023-06-04T00:03:08;13.80;84.80
46091;DHT22;31826;53.572;10.170;2023-06-04T00:05:33;13.80;85.00
46091;DHT22;31826;53.572;10.170;2023-06-04T00:07:59;13.60;84.50
46091;DHT22;31826;53.572;10.170;2023-06-04T00:10:25;13.60;85.70
46091;DHT22;31826;53.572;10.170;2023-06-04T00:12:51;13.50;86.20
46091;DHT22;31826;53.572;10.170;2023-06-04T00:15:17;13.50;85.90
46091;DHT22;31826;53.572;10.170;2023-06-04T00:17:43;13.40;86.80
46091;DHT22;31826;53.572;10.170;2023-06-04T00:20:10;13.40;85.60
46091;DHT22;31826;53.572;10.170;2023-06-04T00:22:36;13.40;85.40
46091;DHT22;31826;53.572;10.170;2023-06-04T00:25:02;13.50;84.40
46091;DHT22;31826;53.572;10.170;2023-06-04T00:27:28;13.40;84.80
46091;DHT22;31826;53.572;10.170;2023-06-04T00:29:54;13.40;85.80
46091;DHT22;31826;53.572;10.170;2023-06-04T00:32:20;13.30;87.60
46091;DHT22;31826;53.572;10.170;2023-06-04T00:34:53;13.00;87.90
46091;DHT22;31826;53.572;10.170;2023-06-04T00:37:24;13.00;88.30
46091;DHT22;31826;53.572;10.170;2023-06-04T00:39:50;12.70;89.50
46091;DHT22;31826;53.572;10.170;2023-06-04T00:42:17;12.60;90.30
46091;DHT22;31826;53.572;10.170;2023-06-04T00:44:43;12.70;90.30
46091;DHT22;31826;53.572;10.170;2023-06-04T00:47:16;12.70;90.40
46091;DHT22;31826;53.572;10.170;2023-06-04T00:49:42;12.70;90.40
46091;DHT22;31826;53.572;10.170;2023-06-04T00:52:09;12.80;90.40
46091;DHT22;31826;53.572;10.170;2023-06-04T00:54:36;12.80;90.60
46091;DHT22;31826;53.572;10.170;2023-06-04T00:57:02;12.80;90.60
46091;DHT22;31826;53.572;10.170;2023-06-04T00:59:32;12.80;90.50
46091;DHT22;31826;53.572;10.170;2023-06-04T01:02:14;12.80;90.50
46091;DHT22;31826;53.572;10.170;2023-06-04T01:04:55;12.90;90.10
46091;DHT22;31826;53.572;10.170;2023-06-04T01:07:22;12.90;90.20
46091;DHT22;31826;53.572;10.170;2023-06-04T01:09:49;12.90;90.40
46091;DHT22;31826;53.572;10.170;2023-06-04T01:12:15;12.90;90.40
46091;DHT22;31826;53.572;10.170;2023-06-04T01:14:41;12.90;90.00
46091;DHT22;31826;53.572;10.170;2023-06-04T01:17:21;12.90;90.20
46091;DHT22;31826;53.572;10.170;2023-06-04T01:25:40;12.80;90.50
46091;DHT22;31826;53.572;10.170;2023-06-04T01:28:13;12.70;90.80
46091;DHT22;31826;53.572;10.170;2023-06-04T01:30:45;12.70;90.60
46091;DHT22;31826;53.572;10.170;2023-06-04T01:33:13;12.60;90.80
46091;DHT22;31826;53.572;10.170;2023-06-04T01:35:39;12.60;90.80
46091;DHT22;31826;53.572;10.170;2023-06-04T01:38:06;12.50;91.30
46091;DHT22;31826;53.572;10.170;2023-06-04T01:40:34;12.40;91.50
46091;DHT22;31826;53.572;10.170;2023-06-04T01:43:00;12.40;91.30
46091;DHT22;31826;53.572;10.170;2023-06-04T01:45:27;12.40;91.20
46091;DHT22;31826;53.572;10.170;2023-06-04T01:47:53;12.40;91.80
46091;DHT22;31826;53.572;10.170;2023-06-04T01:50:19;12.30;91.70
46091;DHT22;31826;53.572;10.170;2023-06-04T01:52:45;12.30;91.50
46091;DHT22;31826;53.572;10.170;2023-06-04T01:55:13;12.40;91.40
46091;DHT22;31826;53.572;10.170;2023-06-04T01:57:40;12.40;91.90
46091;DHT22;31826;53.572;10.170;2023-06-04T02:00:08;12.30;92.00
46091;DHT22;31826;53.572;10.170;2023-06-04T02:02:36;12.30;92.10
46091;DHT22;31826;53.572;10.170;2023-06-04T02:05:06;12.20;91.90
46091;DHT22;31826;53.572;10.170;2023-06-04T02:07:34;12.30;91.10
46091;DHT22;31826;53.572;10.170;2023-06-04T02:10:00;12.30;91.60
46091;DHT22;31826;53.572;10.170;2023-06-04T02:12:26;12.20;91.70
46091;DHT22;31826;53.572;10.170;2023-06-04T02:14:51;12.20;92.30
46091;DHT22;31826;53.572;10.170;2023-06-04T02:17:17;12.20;92.50
46091;DHT22;31826;53.572;10.170;2023-06-04T02:19:43;12.10;92.60
46091;DHT22;31826;53.572;10.170;2023-06-04T02:22:19;12.10;92.60
46091;DHT22;31826;53.572;10.170;2023-06-04T02:24:45;12.00;92.10
46091;DHT22;31826;53.572;10.170;2023-06-04T02:27:13;12.00;91.80
46091;DHT22;31826;53.572;10.170;2023-06-04T02:29:40;12.00;92.60
46091;DHT22;31826;53.572;10.170;2023-06-04T02:32:07;11.90;92.60
46091;DHT22;31826;53.572;10.170;2023-06-04T02:34:33;11.90;92.90
46091;DHT22;31826;53.572;10.170;2023-06-04T02:37:02;11.90;93.40
46091;DHT22;31826;53.572;10.170;2023-06-04T02:39:28;11.80;92.80
46091;DHT22;31826;53.572;10.170;2023-06-04T02:41:54;11.80;93.20
46091;DHT22;31826;53.572;10.170;2023-06-04T02:44:20;11.80;92.70
46091;DHT22;31826;53.572;10.170;2023-06-04T02:46:45;11.80;91.90
46091;DHT22;31826;53.572;10.170;2023-06-04T02:49:11;11.70;93.10
46091;DHT22;31826;53.572;10.170;2023-06-04T02:51:40;11.70;93.80
46091;DHT22;31826;53.572;10.170;2023-06-04T02:54:06;11.70;94.00
46091;DHT22;31826;53.572;10.170;2023-06-04T02:56:33;11.60;94.10
46091;DHT22;31826;53.572;10.170;2023-06-04T02:58:58;11.50;94.30
46091;DHT22;31826;53.572;10.170;2023-06-04T03:01:25;11.50;94.20
46091;DHT22;31826;53.572;10.170;2023-06-04T03:03:52;11.50;94.60
46091;DHT22;31826;53.572;10.170;2023-06-04T03:06:19;11.40;95.00
46091;DHT22;31826;53.572;10.170;2023-06-04T03:08:49;11.40;94.80
46091;DHT22;31826;53.572;10.170;2023-06-04T03:11:18;11.40;95.00
46091;DHT22;31826;53.572;10.170;2023-06-04T03:13:48;11.40;95.30
46091;DHT22;31826;53.572;10.170;2023-06-04T03:16:14;11.40;95.10
46091;DHT22;31826;53.572;10.170;2023-06-04T03:18:41;11.50;95.40
46091;DHT22;31826;53.572;10.170;2023-06-04T03:21:07;11.40;95.50
46091;DHT22;31826;53.572;10.170;2023-06-04T03:23:34;11.40;95.20
46091;DHT22;31826;53.572;10.170;2023-06-04T03:26:04;11.50;95.10
46091;DHT22;31826;53.572;10.170;2023-06-04T03:28:31;11.40;95.10
46091;DHT22;31826;53.572;10.170;2023-06-04T03:30:57;11.50;95.70
46091;DHT22;31826;53.572;10.170;2023-06-04T03:33:23;11.50;95.80
46091;DHT22;31826;53.572;10.170;2023-06-04T03:35:52;11.50;95.90
46091;DHT22;31826;53.572;10.170;2023-06-04T03:38:21;11.40;96.40
46091;DHT22;31826;53.572;10.170;2023-06-04T03:40:48;11.40;96.40
46091;DHT22;31826;53.572;10.170;2023-06-04T03:43:13;11.30;96.50
46091;DHT22;31826;53.572;10.170;2023-06-04T03:45:39;11.40;96.30
46091;DHT22;31826;53.572;10.170;2023-06-04T03:48:05;11.40;96.60
46091;DHT22;31826;53.572;10.170;2023-06-04T03:50:31;11.40;96.70
46091;DHT22;31826;53.572;10.170;2023-06-04T03:52:56;11.40;96.50
46091;DHT22;31826;53.572;10.170;2023-06-04T03:55:22;11.40;96.90
46091;DHT22;31826;53.572;10.170;2023-06-04T03:57:48;11.40;96.70
46091;DHT22;31826;53.572;10.170;2023-06-04T04:00:14;11.50;97.10
46091;DHT22;31826;53.572;10.170;2023-06-04T04:02:41;11.50;97.60
46091;DHT22;31826;53.572;10.170;2023-06-04T04:05:07;11.60;97.60
46091;DHT22;31826;53.572;10.170;2023-06-04T04:07:33;11.60;97.70
46091;DHT22;31826;53.572;10.170;2023-06-04T04:09:58;11.70;97.60
46091;DHT22;31826;53.572;10.170;2023-06-04T04:12:24;11.70;97.70
46091;DHT22;31826;53.572;10.170;2023-06-04T04:14:50;11.70;97.70
46091;DHT22;31826;53.572;10.170;2023-06-04T04:17:16;11.80;97.70
46091;DHT22;31826;53.572;10.170;2023-06-04T04:19:42;11.90;97.80
46091;DHT22;31826;53.572;10.170;2023-06-04T04:22:10;11.90;97.90
46091;DHT22;31826;53.572;10.170;2023-06-04T04:24:36;11.90;98.10
46091;DHT22;31826;53.572;10.170;2023-06-04T04:27:04;12.00;98.30
46091;DHT22;31826;53.572;10.170;2023-06-04T04:29:30;12.10;98.30
46091;DHT22;31826;53.572;10.170;2023-06-04T04:32:00;12.20;96.90
46091;DHT22;31826;53.572;10.170;2023-06-04T04:34:27;12.30;97.60
46091;DHT22;31826;53.572;10.170;2023-06-04T04:36:53;12.30;97.40
46091;DHT22;31826;53.572;10.170;2023-06-04T04:39:22;12.40;96.00
46091;DHT22;31826;53.572;10.170;2023-06-04T04:41:48;12.50;96.60
46091;DHT22;31826;53.572;10.170;2023-06-04T04:44:14;12.40;97.20
46091;DHT22;31826;53.572;10.170;2023-06-04T04:46:40;12.40;97.40
46091;DHT22;31826;53.572;10.170;2023-06-04T04:49:06;12.50;97.10
46091;DHT22;31826;53.572;10.170;2023-06-04T04:51:31;12.60;97.10
46091;DHT22;31826;53.572;10.170;2023-06-04T04:53:58;12.70;95.20
46091;DHT22;31826;53.572;10.170;2023-06-04T04:56:26;12.90;96.10
46091;DHT22;31826;53.572;10.170;2023-06-04T04:58:52;12.90;96.80
46091;DHT22;31826;53.572;10.170;2023-06-04T05:01:19;12.90;97.30
46091;DHT22;31826;53.572;10.170;2023-06-04T05:03:45;12.90;97.20
46091;DHT22;31826;53.572;10.170;2023-06-04T05:06:11;13.10;95.50
46091;DHT22;31826;53.572;10.170;2023-06-04T05:08:37;13.20;96.20
46091;DHT22;31826;53.572;10.170;2023-06-04T05:11:03;13.30;95.80
46091;DHT22;31826;53.572;10.170;2023-06-04T05:13:29;13.50;95.90
46091;DHT22;31826;53.572;10.170;2023-06-04T05:15:54;13.50;96.00
46091;DHT22;31826;53.572;10.170;2023-06-04T05:18:20;13.50;95.80
46091;DHT22;31826;53.572;10.170;2023-06-04T05:20:46;13.60;95.90
46091;DHT22;31826;53.572;10.170;2023-06-04T05:23:12;13.70;96.40
46091;DHT22;31826;53.572;10.170;2023-06-04T05:25:39;13.70;95.90
46091;DHT22;31826;53.572;10.170;2023-06-04T05:28:06;13.90;95.50
46091;DHT22;31826;53.572;10.170;2023-06-04T05:30:32;14.00;95.10
46091;DHT22;31826;53.572;10.170;2023-06-04T05:32:59;14.00;95.40
46091;DHT22;31826;53.572;10.170;2023-06-04T05:35:25;14.10;95.70
46091;DHT22;31826;53.572;10.170;2023-06-04T05:37:51;14.20;96.10
46091;DHT22;31826;53.572;10.170;2023-06-04T05:40:22;14.20;96.00
46091;DHT22;31826;53.572;10.170;2023-06-04T05:42:48;14.30;96.90
46091;DHT22;31826;53.572;10.170;2023-06-04T05:45:14;14.30;96.70
46091;DHT22;31826;53.572;10.170;2023-06-04T05:47:40;14.30;96.80
46091;DHT22;31826;53.572;10.170;2023-06-04T05:50:06;14.40;97.20
46091;DHT22;31826;53.572;10.170;2023-06-04T05:52:32;14.50;96.60
46091;DHT22;31826;53.572;10.170;2023-06-04T05:55:00;14.60;96.90
46091;DHT22;31826;53.572;10.170;2023-06-04T05:57:25;14.70;96.60
46091;DHT22;31826;53.572;10.170;2023-06-04T05:59:51;14.90;96.20
46091;DHT22;31826;53.572;10.170;2023-06-04T06:02:17;14.90;96.20
46091;DHT22;31826;53.572;10.170;2023-06-04T06:04:43;15.10;96.00
46091;DHT22;31826;53.572;10.170;2023-06-04T06:07:08;15.10;96.40
46091;DHT22;31826;53.572;10.170;2023-06-04T06:09:34;15.10;96.10
46091;DHT22;31826;53.572;10.170;2023-06-04T06:12:01;15.30;95.80
46091;DHT22;31826;53.572;10.170;2023-06-04T06:14:27;15.50;95.30
46091;DHT22;31826;53.572;10.170;2023-06-04T06:16:53;15.60;95.30
46091;DHT22;31826;53.572;10.170;2023-06-04T06:19:18;15.60;95.40
46091;DHT22;31826;53.572;10.170;2023-06-04T06:21:44;15.90;95.30
46091;DHT22;31826;53.572;10.170;2023-06-04T06:24:10;16.10;94.20
46091;DHT22;31826;53.572;10.170;2023-06-04T06:26:36;16.20;94.60
46091;DHT22;31826;53.572;10.170;2023-06-04T06:29:02;16.20;94.20
46091;DHT22;31826;53.572;10.170;2023-06-04T06:31:28;16.40;94.40
46091;DHT22;31826;53.572;10.170;2023-06-04T06:33:54;16.50;94.20
46091;DHT22;31826;53.572;10.170;2023-06-04T06:36:19;16.80;94.00
46091;DHT22;31826;53.572;10.170;2023-06-04T06:38:45;17.00;92.90
46091;DHT22;31826;53.572;10.170;2023-06-04T06:41:11;17.00;92.80
46091;DHT22;31826;53.572;10.170;2023-06-04T06:43:37;17.30;92.50
46091;DHT22;31826;53.572;10.170;2023-06-04T06:46:03;17.30;92.60
46091;DHT22;31826;53.572;10.170;2023-06-04T06:48:29;17.40;91.30
46091;DHT22;31826;53.572;10.170;2023-06-04T06:50:55;17.40;91.50
46091;DHT22;31826;53.572;10.170;2023-06-04T06:53:21;17.60;92.20
46091;DHT22;31826;53.572;10.170;2023-06-04T06:55:46;17.60;92.20
46091;DHT22;31826;53.572;10.170;2023-06-04T06:58:12;17.90;92.30
46091;DHT22;31826;53.572;10.170;2023-06-04T07:00:38;18.00;91.40
46091;DHT22;31826;53.572;10.170;2023-06-04T07:03:04;17.90;91.20
46091;DHT22;31826;53.572;10.170;2023-06-04T07:05:30;17.70;90.10
46091;DHT22;31826;53.572;10.170;2023-06-04T07:07:56;17.40;91.40
46091;DHT22;31826;53.572;10.170;2023-06-04T07:10:23;17.70;91.10
46091;DHT22;31826;53.572;10.170;2023-06-04T07:12:49;18.00;92.00
46091;DHT22;31826;53.572;10.170;2023-06-04T07:15:15;18.50;91.40
46091;DHT22;31826;53.572;10.170;2023-06-04T07:17:41;19.10;89.20
46091;DHT22;31826;53.572;10.170;2023-06-04T07:20:07;19.00;86.80
46091;DHT22;31826;53.572;10.170;2023-06-04T07:22:35;19.10;90.40
46091;DHT22;31826;53.572;10.170;2023-06-04T07:25:00;19.20;88.60
46091;DHT22;31826;53.572;10.170;2023-06-04T07:27:26;19.50;89.70
46091;DHT22;31826;53.572;10.170;2023-06-04T07:29:52;19.50;87.70
46091;DHT22;31826;53.572;10.170;2023-06-04T07:32:18;19.70;88.60
46091;DHT22;31826;53.572;10.170;2023-06-04T07:34:44;19.60;85.30
46091;DHT22;31826;53.572;10.170;2023-06-04T07:37:10;19.50;88.50
46091;DHT22;31826;53.572;10.170;2023-06-04T07:39:36;20.00;89.30
46091;DHT22;31826;53.572;10.170;2023-06-04T07:42:04;20.30;87.10
46091;DHT22;31826;53.572;10.170;2023-06-04T07:44:31;20.80;85.10
46091;DHT22;31826;53.572;10.170;2023-06-04T07:46:56;21.00;84.30
46091;DHT22;31826;53.572;10.170;2023-06-04T07:49:22;21.00;81.30
46091;DHT22;31826;53.572;10.170;2023-06-04T07:51:47;20.90;84.10
46091;DHT22;31826;53.572;10.170;2023-06-04T07:54:13;21.20;83.50
46091;DHT22;31826;53.572;10.170;2023-06-04T07:56:39;21.30;83.20
46091;DHT22;31826;53.572;10.170;2023-06-04T07:59:05;21.40;80.70
46091;DHT22;31826;53.572;10.170;2023-06-04T08:01:31;21.40;80.20
46091;DHT22;31826;53.572;10.170;2023-06-04T08:03:57;21.30;82.00
46091;DHT22;31826;53.572;10.170;2023-06-04T08:06:24;21.40;83.90
46091;DHT22;31826;53.572;10.170;2023-06-04T08:08:52;21.30;75.70
46091;DHT22;31826;53.572;10.170;2023-06-04T08:11:18;20.60;76.80
46091;DHT22;31826;53.572;10.170;2023-06-04T08:13:44;20.10;77.40
46091;DHT22;31826;53.572;10.170;2023-06-04T08:16:10;19.60;79.00
46091;DHT22;31826;53.572;10.170;2023-06-04T08:18:39;19.40;78.90
46091;DHT22;31826;53.572;10.170;2023-06-04T08:21:08;19.30;84.40
46091;DHT22;31826;53.572;10.170;2023-06-04T08:23:34;19.20;80.20
46091;DHT22;31826;53.572;10.170;2023-06-04T08:26:00;19.40;84.00
46091;DHT22;31826;53.572;10.170;2023-06-04T08:28:26;20.10;84.50
46091;DHT22;31826;53.572;10.170;2023-06-04T08:30:52;20.80;84.80
46091;DHT22;31826;53.572;10.170;2023-06-04T08:33:17;20.70;75.60
46091;DHT22;31826;53.572;10.170;2023-06-04T08:35:43;20.90;78.90
46091;DHT22;31826;53.572;10.170;2023-06-04T08:38:09;21.30;78.60
46091;DHT22;31826;53.572;10.170;2023-06-04T08:40:35;21.50;78.20
46091;DHT22;31826;53.572;10.170;2023-06-04T08:43:01;21.60;79.00
46091;DHT22;31826;53.572;10.170;2023-06-04T08:45:27;21.60;74.70
46091;DHT22;31826;53.572;10.170;2023-06-04T08:47:53;21.80;78.70
46091;DHT22;31826;53.572;10.170;2023-06-04T08:50:24;22.40;79.30
46091;DHT22;31826;53.572;10.170;2023-06-04T08:52:55;23.00;77.00
46091;DHT22;31826;53.572;10.170;2023-06-04T08:55:21;23.60;75.80
46091;DHT22;31826;53.572;10.170;2023-06-04T08:57:50;24.00;74.00
46091;DHT22;31826;53.572;10.170;2023-06-04T09:00:19;23.90;74.50
46091;DHT22;31826;53.572;10.170;2023-06-04T09:02:46;23.60;70.10
46091;DHT22;31826;53.572;10.170;2023-06-04T09:05:19;23.50;67.70
46091;DHT22;31826;53.572;10.170;2023-06-04T09:07:46;23.20;68.30
46091;DHT22;31826;53.572;10.170;2023-06-04T09:10:17;22.70;65.00
46091;DHT22;31826;53.572;10.170;2023-06-04T09:12:46;22.40;67.30
46091;DHT22;31826;53.572;10.170;2023-06-04T09:15:12;22.20;67.70
46091;DHT22;31826;53.572;10.170;2023-06-04T09:17:38;22.10;67.20
46091;DHT22;31826;53.572;10.170;2023-06-04T09:20:04;21.90;68.50
46091;DHT22;31826;53.572;10.170;2023-06-04T09:22:40;22.40;71.50
46091;DHT22;31826;53.572;10.170;2023-06-04T09:25:06;22.90;74.60
46091;DHT22;31826;53.572;10.170;2023-06-04T09:27:39;23.20;65.90
46091;DHT22;31826;53.572;10.170;2023-06-04T09:30:08;23.20;68.70
46091;DHT22;31826;53.572;10.170;2023-06-04T09:32:34;22.70;67.70
46091;DHT22;31826;53.572;10.170;2023-06-04T09:37:35;23.50;64.50
46091;DHT22;31826;53.572;10.170;2023-06-04T09:40:01;23.30;65.00
46091;DHT22;31826;53.572;10.170;2023-06-04T09:42:30;23.40;67.70
46091;DHT22;31826;53.572;10.170;2023-06-04T09:44:56;23.00;66.60
46091;DHT22;31826;53.572;10.170;2023-06-04T09:47:23;23.00;64.40
46091;DHT22;31826;53.572;10.170;2023-06-04T09:49:49;23.60;68.10
46091;DHT22;31826;53.572;10.170;2023-06-04T09:52:17;24.20;69.00
46091;DHT22;31826;53.572;10.170;2023-06-04T09:54:42;24.40;64.30
46091;DHT22;31826;53.572;10.170;2023-06-04T09:57:18;24.60;67.10
46091;DHT22;31826;53.572;10.170;2023-06-04T09:59:49;24.90;62.40
46091;DHT22;31826;53.572;10.170;2023-06-04T10:02:20;25.00;66.80
46091;DHT22;31826;53.572;10.170;2023-06-04T10:04:55;25.20;66.10
46091;DHT22;31826;53.572;10.170;2023-06-04T10:07:25;25.90;63.00
46091;DHT22;31826;53.572;10.170;2023-06-04T10:09:52;26.60;65.60
46091;DHT22;31826;53.572;10.170;2023-06-04T10:12:27;26.50;58.60
46091;DHT22;31826;53.572;10.170;2023-06-04T10:15:02;25.90;58.90
46091;DHT22;31826;53.572;10.170;2023-06-04T10:17:31;25.10;56.90
46091;DHT22;31826;53.572;10.170;2023-06-04T10:20:00;24.20;58.10
46091;DHT22;31826;53.572;10.170;2023-06-04T10:22:28;24.20;59.10
46091;DHT22;31826;53.572;10.170;2023-06-04T10:24:54;23.70;58.30
46091;DHT22;31826;53.572;10.170;2023-06-04T10:27:20;22.90;59.50
46091;DHT22;31826;53.572;10.170;2023-06-04T10:29:49;22.10;61.30
46091;DHT22;31826;53.572;10.170;2023-06-04T10:32:15;22.50;64.20
46091;DHT22;31826;53.572;10.170;2023-06-04T10:34:42;22.90;60.00
46091;DHT22;31826;53.572;10.170;2023-06-04T10:37:25;23.00;61.60
46091;DHT22;31826;53.572;10.170;2023-06-04T10:39:55;23.50;61.30
46091;DHT22;31826;53.572;10.170;2023-06-04T10:42:22;23.90;58.60
46091;DHT22;31826;53.572;10.170;2023-06-04T10:44:53;23.60;58.80
46091;DHT22;31826;53.572;10.170;2023-06-04T10:47:23;23.80;60.50
46091;DHT22;31826;53.572;10.170;2023-06-04T10:49:53;24.60;65.80
46091;DHT22;31826;53.572;10.170;2023-06-04T10:52:20;25.70;62.50
46091;DHT22;31826;53.572;10.170;2023-06-04T10:54:47;25.60;56.30
46091;DHT22;31826;53.572;10.170;2023-06-04T10:57:19;25.90;60.30
46091;DHT22;31826;53.572;10.170;2023-06-04T10:59:58;26.00;61.80
46091;DHT22;31826;53.572;10.170;2023-06-04T11:02:24;26.50;57.80
46091;DHT22;31826;53.572;10.170;2023-06-04T11:05:04;26.60;54.80
46091;DHT22;31826;53.572;10.170;2023-06-04T11:07:43;27.10;61.80
46091;DHT22;31826;53.572;10.170;2023-06-04T11:10:13;26.10;54.30
46091;DHT22;31826;53.572;10.170;2023-06-04T11:12:46;25.80;59.80
46091;DHT22;31826;53.572;10.170;2023-06-04T11:15:13;26.00;55.40
46091;DHT22;31826;53.572;10.170;2023-06-04T11:17:51;25.70;55.50
46091;DHT22;31826;53.572;10.170;2023-06-04T11:20:18;25.30;56.60
46091;DHT22;31826;53.572;10.170;2023-06-04T11:22:55;24.80;56.40
46091;DHT22;31826;53.572;10.170;2023-06-04T11:25:25;25.00;56.80
46091;DHT22;31826;53.572;10.170;2023-06-04T11:27:54;24.80;55.60
46091;DHT22;31826;53.572;10.170;2023-06-04T11:30:21;24.80;57.20
46091;DHT22;31826;53.572;10.170;2023-06-04T11:32:47;25.30;58.20
46091;DHT22;31826;53.572;10.170;2023-06-04T11:35:12;25.90;57.80
46091;DHT22;31826;53.572;10.170;2023-06-04T11:37:40;26.30;58.20
46091;DHT22;31826;53.572;10.170;2023-06-04T11:40:15;26.90;62.40
46091;DHT22;31826;53.572;10.170;2023-06-04T11:42:42;27.70;56.50
46091;DHT22;31826;53.572;10.170;2023-06-04T11:45:13;27.80;55.10
46091;DHT22;31826;53.572;10.170;2023-06-04T11:48:01;27.40;55.00
46091;DHT22;31826;53.572;10.170;2023-06-04T11:50:29;27.70;55.30
46091;DHT22;31826;53.572;10.170;2023-06-04T11:52:55;28.00;56.00
46091;DHT22;31826;53.572;10.170;2023-06-04T11:55:21;28.30;54.60
46091;DHT22;31826;53.572;10.170;2023-06-04T11:57:48;28.10;55.80
46091;DHT22;31826;53.572;10.170;2023-06-04T12:00:15;27.90;55.20
46091;DHT22;31826;53.572;10.170;2023-06-04T12:02:55;27.70;53.80
46091;DHT22;31826;53.572;10.170;2023-06-04T12:05:23;27.70;52.20
46091;DHT22;31826;53.572;10.170;2023-06-04T12:07:52;26.90;55.30
46091;DHT22;31826;53.572;10.170;2023-06-04T12:10:19;27.30;56.20
46091;DHT22;31826;53.572;10.170;2023-06-04T12:12:45;27.80;55.60
46091;DHT22;31826;53.572;10.170;2023-06-04T12:15:11;27.90;54.90
46091;DHT22;31826;53.572;10.170;2023-06-04T12:17:48;28.10;53.30
46091;DHT22;31826;53.572;10.170;2023-06-04T12:20:14;28.30;53.40
46091;DHT22;31826;53.572;10.170;2023-06-04T12:22:46;28.30;55.90
46091;DHT22;31826;53.572;10.170;2023-06-04T12:25:23;28.50;55.40
46091;DHT22;31826;53.572;10.170;2023-06-04T12:27:49;28.60;53.20
46091;DHT22;31826;53.572;10.170;2023-06-04T12:30:15;29.10;53.60
46091;DHT22;31826;53.572;10.170;2023-06-04T12:32:41;28.40;55.10
46091;DHT22;31826;53.572;10.170;2023-06-04T12:35:08;29.00;55.10
46091;DHT22;31826;53.572;10.170;2023-06-04T12:37:33;29.40;55.80
46091;DHT22;31826;53.572;10.170;2023-06-04T12:39:59;29.20;52.90
46091;DHT22;31826;53.572;10.170;2023-06-04T12:42:25;29.00;54.30
46091;DHT22;31826;53.572;10.170;2023-06-04T12:44:53;29.10;52.70
46091;DHT22;31826;53.572;10.170;2023-06-04T12:47:19;28.60;55.40
46091;DHT22;31826;53.572;10.170;2023-06-04T12:49:46;28.70;54.50
46091;DHT22;31826;53.572;10.170;2023-06-04T12:52:12;28.30;53.90
46091;DHT22;31826;53.572;10.170;2023-06-04T12:54:39;28.10;56.10
46091;DHT22;31826;53.572;10.170;2023-06-04T12:57:05;28.10;54.10
46091;DHT22;31826;53.572;10.170;2023-06-04T12:59:31;28.00;53.00
46091;DHT22;31826;53.572;10.170;2023-06-04T13:01:57;28.00;54.20
46091;DHT22;31826;53.572;10.170;2023-06-04T13:04:23;28.30;56.70
46091;DHT22;31826;53.572;10.170;2023-06-04T13:06:52;28.20;55.80
46091;DHT22;31826;53.572;10.170;2023-06-04T13:09:20;28.90;57.00
46091;DHT22;31826;53.572;10.170;2023-06-04T13:11:48;29.20;53.00
46091;DHT22;31826;53.572;10.170;2023-06-04T13:14:14;28.80;52.80
46091;DHT22;31826;53.572;10.170;2023-06-04T13:16:40;28.50;56.10
46091;DHT22;31826;53.572;10.170;2023-06-04T13:19:06;29.10;54.80
46091;DHT22;31826;53.572;10.170;2023-06-04T13:21:32;29.50;53.20
46091;DHT22;31826;53.572;10.170;2023-06-04T13:23:58;29.40;51.40
46091;DHT22;31826;53.572;10.170;2023-06-04T13:26:24;29.50;54.80
46091;DHT22;31826;53.572;10.170;2023-06-04T13:28:51;29.30;51.80
46091;DHT22;31826;53.572;10.170;2023-06-04T13:31:16;29.30;53.60
46091;DHT22;31826;53.572;10.170;2023-06-04T13:33:43;29.30;53.80
46091;DHT22;31826;53.572;10.170;2023-06-04T13:36:09;29.80;56.10
46091;DHT22;31826;53.572;10.170;2023-06-04T13:38:34;30.30;53.50
46091;DHT22;31826;53.572;10.170;2023-06-04T13:41:00;30.80;51.10
46091;DHT22;31826;53.572;10.170;2023-06-04T13:43:26;30.70;51.70
46091;DHT22;31826;53.572;10.170;2023-06-04T13:45:52;30.80;54.00
46091;DHT22;31826;53.572;10.170;2023-06-04T13:48:18;31.20;54.80
46091;DHT22;31826;53.572;10.170;2023-06-04T13:50:44;31.20;53.60
46091;DHT22;31826;53.572;10.170;2023-06-04T13:53:10;30.90;48.50
46091;DHT22;31826;53.572;10.170;2023-06-04T13:55:36;30.10;53.00
46091;DHT22;31826;53.572;10.170;2023-06-04T13:58:01;29.80;52.50
46091;DHT22;31826;53.572;10.170;2023-06-04T14:00:27;30.10;55.70
46091;DHT22;31826;53.572;10.170;2023-06-04T14:02:55;30.40;52.40
46091;DHT22;31826;53.572;10.170;2023-06-04T14:05:22;30.80;53.70
46091;DHT22;31826;53.572;10.170;2023-06-04T14:07:49;31.40;53.10
46091;DHT22;31826;53.572;10.170;2023-06-04T14:10:14;31.50;53.70
46091;DHT22;31826;53.572;10.170;2023-06-04T14:12:40;31.90;52.70
46091;DHT22;31826;53.572;10.170;2023-06-04T14:15:07;32.10;52.90
46091;DHT22;31826;53.572;10.170;2023-06-04T14:17:38;32.60;52.40
46091;DHT22;31826;53.572;10.170;2023-06-04T14:20:06;32.50;49.00
46091;DHT22;31826;53.572;10.170;2023-06-04T14:22:38;32.30;50.10
46091;DHT22;31826;53.572;10.170;2023-06-04T14:25:06;31.80;50.30
46091;DHT22;31826;53.572;10.170;2023-06-04T14:27:33;31.50;50.60
46091;DHT22;31826;53.572;10.170;2023-06-04T14:30:01;31.10;49.40
46091;DHT22;31826;53.572;10.170;2023-06-04T14:32:26;30.70;50.40
46091;DHT22;31826;53.572;10.170;2023-06-04T14:34:52;30.90;52.70
46091;DHT22;31826;53.572;10.170;2023-06-04T14:37:18;31.20;52.60
46091;DHT22;31826;53.572;10.170;2023-06-04T14:39:45;30.80;50.80
46091;DHT22;31826;53.572;10.170;2023-06-04T14:42:11;30.70;52.50
46091;DHT22;31826;53.572;10.170;2023-06-04T14:44:36;30.70;49.90
46091;DHT22;31826;53.572;10.170;2023-06-04T14:47:02;30.10;49.10
46091;DHT22;31826;53.572;10.170;2023-06-04T14:49:28;29.80;52.10
46091;DHT22;31826;53.572;10.170;2023-06-04T14:51:53;29.50;51.80
46091;DHT22;31826;53.572;10.170;2023-06-04T14:54:19;29.50;54.80
46091;DHT22;31826;53.572;10.170;2023-06-04T14:56:45;29.60;54.30
46091;DHT22;31826;53.572;10.170;2023-06-04T14:59:10;30.10;54.60
46091;DHT22;31826;53.572;10.170;2023-06-04T15:01:38;30.40;51.60
46091;DHT22;31826;53.572;10.170;2023-06-04T15:04:05;30.10;50.00
46091;DHT22;31826;53.572;10.170;2023-06-04T15:06:31;29.50;52.80
46091;DHT22;31826;53.572;10.170;2023-06-04T15:08:57;29.30;54.40
46091;DHT22;31826;53.572;10.170;2023-06-04T15:11:22;29.20;55.00
46091;DHT22;31826;53.572;10.170;2023-06-04T15:13:48;29.80;54.40
46091;DHT22;31826;53.572;10.170;2023-06-04T15:16:14;30.40;54.70
46091;DHT22;31826;53.572;10.170;2023-06-04T15:18:40;30.90;52.10
46091;DHT22;31826;53.572;10.170;2023-06-04T15:21:05;30.80;52.80
46091;DHT22;31826;53.572;10.170;2023-06-04T15:23:31;30.40;53.20